Wednesday, October 18, 2017, 6:16 PM EDT
Back to Local

KBFD, Bradford Regional Airport

Location: Cyclone, PA, United States Lat: 41.8
Local Time: 6:16 PM EDT (22:16 GMT) Lon: -78.633
Time Zone: US/Eastern Elev: 2142 ft

Show me the last for .
Show Decoded

2017-10-18 17:53 METAR KBFD 182153Z AUTO 21004KT 10SM CLR 18/03 A3024 RMK AO2 SLP240 T01780028 =
2017-10-18 16:53 METAR KBFD 182053Z AUTO 20008KT 170V240 10SM CLR 19/03 A3024 RMK AO2 SLP237
                 T01940028 56014 =
2017-10-18 15:53 METAR KBFD 181953Z AUTO VRB03G14KT 10SM CLR 19/03 A3025 RMK AO2 SLP239 T01940033
                 =
2017-10-18 14:53 METAR KBFD 181853Z AUTO 22008KT 10SM CLR 19/02 A3026 RMK AO2 SLP244 T01940022 =
2017-10-18 13:53 METAR KBFD 181753Z AUTO VRB06KT 10SM CLR 19/03 A3028 RMK AO2 SLP251 T01890028
                 10189 20022 58018 =
2017-10-18 12:53 METAR KBFD 181653Z AUTO 26006KT 10SM CLR 17/04 A3031 RMK AO2 SLP263 T01720039 =
2017-10-18 11:53 METAR KBFD 181553Z AUTO VRB05KT 10SM CLR 16/04 A3033 RMK AO2 SLP271 T01560044 =
2017-10-18 10:53 METAR KBFD 181453Z AUTO VRB06KT 10SM CLR 14/05 A3034 RMK AO2 SLP273 T01390050
                 50006 =
2017-10-18 09:53 METAR KBFD 181353Z AUTO 20004KT 10SM CLR 11/05 A3034 RMK AO2 SLP278 T01060050 =
2017-10-18 08:53 METAR KBFD 181253Z AUTO 23004KT 10SM CLR 08/04 A3034 RMK AO2 SLP279 T00830039 =
2017-10-18 07:53 METAR KBFD 181153Z AUTO 00000KT 10SM CLR 02/02 A3032 RMK AO2 SLP278 T00220017
                 10083 20011 51012 =
2017-10-18 06:53 METAR KBFD 181053Z AUTO 12003KT 10SM CLR 02/02 A3031 RMK AO2 SLP272 T00220017 $
                 =
2017-10-18 05:53 METAR KBFD 180953Z AUTO 00000KT 10SM CLR 04/03 A3030 RMK AO2 SLP264 T00390028 $
                 =
2017-10-18 04:53 METAR KBFD 180853Z AUTO 00000KT 10SM CLR 07/03 A3028 RMK AO2 SLP256 T00670033
                 53004 $ =
2017-10-18 03:53 METAR KBFD 180753Z AUTO 22003KT 10SM CLR 07/03 A3027 RMK AO2 SLP251 T00720033 $
                 =
2017-10-18 02:53 METAR KBFD 180653Z AUTO 23004KT 10SM CLR 08/03 A3027 RMK AO2 SLP252 T00780033 =
2017-10-18 01:53 METAR KBFD 180553Z AUTO 23005KT 10SM CLR 08/03 A3027 RMK AO2 SLP251 T00830033
                 10100 20083 51003 =
2017-10-18 00:53 METAR KBFD 180453Z AUTO 25004KT 10SM CLR 09/03 A3027 RMK AO2 SLP251 T00890033
                 401441039 =
2017-10-17 23:53 METAR KBFD 180353Z AUTO 23004KT 10SM CLR 09/03 A3027 RMK AO2 SLP252 T00890033 =
2017-10-17 22:53 METAR KBFD 180253Z AUTO VRB03KT 10SM CLR 10/03 A3026 RMK AO2 SLP250 T01000033
                 53015 =
2017-10-17 21:53 METAR KBFD 180153Z AUTO VRB03KT 10SM CLR 10/03 A3023 RMK AO2 SLP244 T01000033 =
2017-10-17 20:53 METAR KBFD 180053Z AUTO VRB03KT 10SM CLR 09/03 A3022 RMK AO2 SLPNO T00940033 =
2017-10-17 19:53 METAR KBFD 172353Z AUTO 15003KT 10SM CLR 09/03 A3021 RMK AO2 SLPNO T00890033
                 10144 20083 53003 =
2017-10-17 18:53 METAR KBFD 172253Z AUTO 00000KT 10SM CLR 12/03 A3021 RMK AO2 SLP242 T01170028 =

Support USWX by starting your Amazon purchase here.